Time;durP1;ratioP1;P1;durP2;ratioP2;P2;SDS_P1;SDS_P2;PMS_P1;PMS_P2;Temp;Humidity;BMP_temperature;BMP_pressure;BME280_temperature;BME280_humidity;BME280_pressure;Samples;Min_cycle;Max_cycle;Signal;HPM_P1;HPM_P2
2022/04/04 00:02:03;;;;;;;7.63;4.07;;;;;;;4.11;72.12;101032.97;5024640;28;20231;-75
2022/04/04 00:04:29;;;;;;;5.10;4.00;;;;;;;4.18;72.74;101026.34;5022390;28;20171;-76
2022/04/04 00:06:55;;;;;;;7.73;4.40;;;;;;;4.54;71.88;101019.16;5021928;28;20174;-75
2022/04/04 00:09:20;;;;;;;5.37;4.47;;;;;;;4.24;71.85;101018.88;5024655;28;20524;-75
2022/04/04 00:11:45;;;;;;;5.57;5.07;;;;;;;4.66;72.11;101013.59;5023506;28;20175;-74
2022/04/04 00:14:10;;;;;;;6.53;4.80;;;;;;;4.36;71.25;101018.47;5023083;28;20461;-75
2022/04/04 00:16:36;;;;;;;6.67;5.00;;;;;;;4.37;71.53;101007.31;5022422;28;20540;-77
2022/04/04 00:19:05;;;;;;;5.93;4.70;;;;;;;4.33;72.52;101003.75;5022750;28;20171;-78
2022/04/04 00:21:31;;;;;;;6.97;4.67;;;;;;;4.45;72.17;101002.44;5021917;28;20213;-77
2022/04/04 00:23:56;;;;;;;5.80;4.37;;;;;;;4.53;71.33;100998.47;5021711;28;20426;-77
2022/04/04 00:26:21;;;;;;;5.10;4.20;;;;;;;4.29;72.70;101006.13;5022165;28;20186;-73
2022/04/04 00:28:47;;;;;;;5.70;5.10;;;;;;;7.57;71.29;100992.69;5021196;28;20202;-66
2022/04/04 00:31:12;;;;;;;5.10;4.60;;;;;;;7.24;68.91;100987.50;5020868;28;20262;-65
2022/04/04 00:33:37;;;;;;;5.90;4.70;;;;;;;8.07;66.46;100978.34;5021332;28;20253;-65
2022/04/04 00:36:03;;;;;;;6.47;4.97;;;;;;;7.90;66.37;100972.72;5020879;28;20175;-65
2022/04/04 00:38:28;;;;;;;5.33;4.77;;;;;;;8.06;67.06;100967.09;5020139;28;20179;-63
2022/04/04 00:40:53;;;;;;;6.60;4.53;;;;;;;7.52;64.72;100970.06;5021162;28;20171;-63
2022/04/04 00:43:19;;;;;;;4.70;4.30;;;;;;;8.42;63.68;100945.34;5020622;28;20189;-65
2022/04/04 00:45:45;;;;;;;5.50;4.37;;;;;;;8.34;64.88;100946.91;5020719;28;20441;-64
2022/04/04 00:48:11;;;;;;;5.13;4.57;;;;;;;8.84;64.13;100945.41;5021366;28;20171;-64
2022/04/04 00:50:36;;;;;;;6.23;4.30;;;;;;;5.69;64.91;100944.00;5020028;28;20425;-77
2022/04/04 00:53:01;;;;;;;5.87;4.40;;;;;;;5.72;66.40;100938.03;5020773;28;20207;-77
2022/04/04 00:55:27;;;;;;;4.97;4.43;;;;;;;5.39;67.52;100936.09;5020708;28;20202;-76
2022/04/04 00:57:54;;;;;;;6.37;5.03;;;;;;;5.08;68.36;100939.34;5020903;28;20175;-75
2022/04/04 01:00:20;;;;;;;5.10;4.70;;;;;;;5.73;67.97;100927.75;5020678;28;20179;-77
2022/04/04 01:02:45;;;;;;;13.63;5.00;;;;;;;5.51;67.77;100925.31;5020767;28;20479;-78
2022/04/04 01:05:11;;;;;;;6.10;4.60;;;;;;;4.96;68.92;100930.31;5021121;28;20178;-78
2022/04/04 01:07:38;;;;;;;5.70;5.00;;;;;;;4.79;69.61;100934.00;5021169;28;20217;-77
2022/04/04 01:10:06;;;;;;;5.50;5.00;;;;;;;5.17;69.37;100916.41;5020748;28;20185;-78
2022/04/04 01:12:31;;;;;;;7.07;5.00;;;;;;;4.66;70.75;100920.63;5020163;28;20454;-77
2022/04/04 01:14:56;;;;;;;5.80;5.20;;;;;;;4.89;70.20;100912.84;5021204;28;20810;-79
2022/04/04 01:17:24;;;;;;;6.30;5.70;;;;;;;5.03;70.26;100910.75;5020703;28;20174;-77
2022/04/04 01:19:49;;;;;;;7.13;5.33;;;;;;;4.47;71.64;100910.47;5020949;28;20533;-78
2022/04/04 01:22:15;;;;;;;6.70;5.60;;;;;;;4.74;71.40;100899.41;5020938;28;20412;-79
2022/04/04 01:24:41;;;;;;;6.80;5.57;;;;;;;4.66;70.31;100899.13;5020593;28;20202;-78
2022/04/04 01:27:08;;;;;;;7.10;5.67;;;;;;;4.60;71.48;100910.09;5019910;28;20421;-78
2022/04/04 01:29:34;;;;;;;8.30;5.73;;;;;;;4.78;70.93;100893.53;5021141;28;20185;-78
2022/04/04 01:32:00;;;;;;;5.83;5.23;;;;;;;4.31;71.42;100886.66;5020901;28;20417;-79
2022/04/04 01:34:25;;;;;;;6.20;5.60;;;;;;;4.85;71.58;100885.16;5023963;28;20473;-74
2022/04/04 01:36:51;;;;;;;7.83;5.80;;;;;;;4.72;71.81;100878.66;5023055;28;20258;-73
2022/04/04 01:39:17;;;;;;;6.50;5.43;;;;;;;4.70;71.85;100878.59;5020941;28;20257;-74
2022/04/04 01:41:42;;;;;;;5.90;5.40;;;;;;;4.92;70.78;100886.25;5019926;28;20496;-74
2022/04/04 01:44:08;;;;;;;7.30;6.20;;;;;;;4.32;70.97;100875.50;5020527;28;20229;-74
2022/04/04 01:46:33;;;;;;;6.60;6.00;;;;;;;4.27;71.20;100863.28;5020288;28;20178;-74
2022/04/04 01:49:01;;;;;;;6.83;6.20;;;;;;;4.58;71.42;100860.09;5019931;28;20178;-77
2022/04/04 01:51:29;;;;;;;7.80;5.90;;;;;;;4.30;71.67;100853.94;5020373;28;20220;-78
2022/04/04 01:53:54;;;;;;;9.63;5.70;;;;;;;4.02;71.66;100850.31;5019223;28;20470;-77
2022/04/04 01:56:20;;;;;;;6.40;5.80;;;;;;;4.61;71.11;100847.28;5020305;28;20432;-79
2022/04/04 01:58:46;;;;;;;7.37;6.60;;;;;;;4.65;70.95;100841.41;5021242;28;20178;-78
2022/04/04 02:01:19;;;;;;;7.23;6.50;;;;;;;4.42;71.44;100835.41;5019292;28;20442;-79
2022/04/04 02:03:49;;;;;;;8.57;6.30;;;;;;;4.14;72.05;100826.69;4999330;28;20186;-77
2022/04/04 02:06:14;;;;;;;7.40;6.37;;;;;;;4.26;71.86;100821.06;5000141;28;20429;-77
2022/04/04 02:08:44;;;;;;;7.07;6.27;;;;;;;4.22;72.80;100819.22;5000118;28;20509;-79
2022/04/04 02:11:09;;;;;;;7.33;6.57;;;;;;;4.49;71.74;100823.63;5000292;28;20451;-79
2022/04/04 02:13:34;;;;;;;7.00;6.30;;;;;;;3.65;73.52;100822.22;4999993;28;20458;-79
2022/04/04 02:16:01;;;;;;;13.13;7.07;;;;;;;4.02;73.05;100801.31;5000299;28;20222;-77
2022/04/04 02:18:27;;;;;;;7.93;6.17;;;;;;;4.12;73.30;100793.91;5000328;28;20167;-76
2022/04/04 02:20:53;;;;;;;7.60;6.17;;;;;;;4.08;72.87;100792.03;4999925;28;20418;-77
2022/04/04 02:23:20;;;;;;;8.97;6.60;;;;;;;3.92;73.74;100796.63;4999730;28;20469;-77
2022/04/04 02:25:46;;;;;;;8.17;6.80;;;;;;;4.00;73.46;100792.63;5000244;28;20369;-77
2022/04/04 02:28:11;;;;;;;8.00;6.60;;;;;;;4.02;73.06;100788.41;4999631;28;20473;-78
2022/04/04 02:30:37;;;;;;;8.67;6.73;;;;;;;3.97;72.80;100782.19;4999660;28;21196;-79
2022/04/04 02:33:03;;;;;;;7.07;6.23;;;;;;;3.70;74.76;100777.75;5000565;28;20261;-80
2022/04/04 02:35:29;;;;;;;9.37;7.03;;;;;;;3.87;73.75;100772.38;5015587;28;20186;-78
2022/04/04 02:37:54;;;;;;;7.50;6.50;;;;;;;3.67;74.06;100771.63;5019504;28;20170;-78
2022/04/04 02:40:19;;;;;;;7.33;6.57;;;;;;;3.81;74.08;100765.25;5019114;28;20261;-78
2022/04/04 02:42:46;;;;;;;7.67;6.30;;;;;;;3.85;73.81;100753.38;5019161;28;20190;-78
2022/04/04 02:45:12;;;;;;;10.03;6.90;;;;;;;3.95;73.61;100752.91;5019482;28;20603;-78
2022/04/04 02:47:38;;;;;;;7.83;7.03;;;;;;;4.18;72.93;100742.50;5019796;28;20409;-78
2022/04/04 02:50:04;;;;;;;6.80;6.20;;;;;;;3.82;74.40;100738.66;5019474;28;20842;-77
2022/04/04 02:52:29;;;;;;;9.03;6.30;;;;;;;3.96;74.16;100735.72;5018863;28;20457;-79
2022/04/04 02:54:55;;;;;;;6.13;5.53;;;;;;;3.94;73.90;100721.88;5021543;28;20209;-80
2022/04/04 02:57:21;;;;;;;8.63;5.50;;;;;;;3.95;73.70;100736.53;5020505;28;20213;-79
2022/04/04 02:59:46;;;;;;;9.00;6.67;;;;;;;3.90;73.74;100727.75;5019585;28;20171;-79
2022/04/04 03:02:12;;;;;;;7.80;6.77;;;;;;;4.17;73.69;100725.31;5019348;28;20462;-79
2022/04/04 03:04:40;;;;;;;7.67;6.33;;;;;;;4.31;72.88;100711.16;5018819;28;20183;-80
2022/04/04 03:07:09;;;;;;;6.77;6.07;;;;;;;3.95;72.58;100709.06;5018526;28;20410;-80
2022/04/04 03:09:34;;;;;;;6.60;5.90;;;;;;;3.62;74.18;100698.38;5018380;28;20500;-79
2022/04/04 03:12:01;;;;;;;9.00;6.33;;;;;;;3.88;73.71;100691.59;5018960;28;20472;-79
2022/04/04 03:14:27;;;;;;;10.10;6.10;;;;;;;4.20;73.82;100686.69;5018742;28;20218;-77
2022/04/04 03:16:52;;;;;;;9.50;7.03;;;;;;;3.84;73.67;100684.56;5018222;28;20727;-78
2022/04/04 03:19:18;;;;;;;9.23;5.63;;;;;;;4.20;72.62;100677.25;5018722;28;20202;-78
2022/04/04 03:21:46;;;;;;;9.83;6.00;;;;;;;4.46;71.72;100671.22;5019227;28;20449;-77
2022/04/04 03:24:12;;;;;;;9.07;6.40;;;;;;;4.22;72.75;100669.53;5018991;28;20226;-78
2022/04/04 03:26:37;;;;;;;6.50;5.90;;;;;;;4.24;72.83;100662.75;5018775;28;20460;-78
2022/04/04 03:29:02;;;;;;;7.00;6.00;;;;;;;4.11;72.35;100664.00;5019729;28;20449;-80
2022/04/04 03:31:28;;;;;;;11.00;5.57;;;;;;;4.46;71.57;100658.31;5018601;28;20457;-79
2022/04/04 03:33:53;;;;;;;6.53;5.73;;;;;;;4.30;71.69;100652.66;5018869;28;20213;-78
2022/04/04 03:36:19;;;;;;;8.63;6.10;;;;;;;4.12;73.01;100646.84;5019183;28;20175;-80
2022/04/04 03:38:44;;;;;;;5.80;5.30;;;;;;;4.03;72.47;100644.81;5018716;28;20183;-80
2022/04/04 03:41:09;;;;;;;7.00;6.30;;;;;;;4.33;71.77;100636.34;5018302;28;20175;-78
2022/04/04 03:43:35;;;;;;;6.57;5.80;;;;;;;4.07;71.67;100628.63;5019174;28;20163;-77
2022/04/04 03:46:00;;;;;;;8.23;6.20;;;;;;;4.14;71.87;100637.44;5018581;28;20178;-78
2022/04/04 03:48:25;;;;;;;8.97;6.03;;;;;;;4.41;71.66;100623.72;5018740;28;20258;-78
2022/04/04 03:50:54;;;;;;;6.80;5.53;;;;;;;4.22;72.42;100612.78;5018435;28;20206;-79
2022/04/04 03:53:19;;;;;;;7.13;6.00;;;;;;;4.34;71.98;100615.78;5018551;28;20572;-78
2022/04/04 03:55:45;;;;;;;8.97;5.70;;;;;;;4.63;71.09;100608.09;5018701;28;20417;-79
2022/04/04 03:58:10;;;;;;;6.70;6.00;;;;;;;4.53;70.63;100600.88;5020564;28;20179;-79
2022/04/04 04:00:38;;;;;;;6.70;5.43;;;;;;;4.50;71.01;100587.88;5018268;28;20168;-80
2022/04/04 04:03:03;;;;;;;6.63;5.93;;;;;;;4.51;71.65;100590.50;5018287;28;20318;-79
2022/04/04 04:05:28;;;;;;;7.43;5.90;;;;;;;4.52;70.74;100578.50;5018015;28;20445;-79
2022/04/04 04:07:54;;;;;;;7.93;5.83;;;;;;;4.50;70.25;100567.22;5018103;28;20175;-78
2022/04/04 04:10:20;;;;;;;7.83;6.27;;;;;;;4.38;69.68;100558.28;5017955;28;20167;-80
2022/04/04 04:12:46;;;;;;;6.60;5.43;;;;;;;4.28;70.68;100556.22;5018627;28;20191;-78
2022/04/04 04:15:17;;;;;;;6.90;6.20;;;;;;;4.67;70.18;100554.84;5018814;28;20437;-79
2022/04/04 04:17:42;;;;;;;6.43;5.83;;;;;;;4.37;70.56;100538.47;5018397;28;20163;-79
2022/04/04 04:20:20;;;;;;;7.47;6.23;;;;;;;4.64;69.91;100527.25;5018239;28;20398;-79
2022/04/04 04:22:48;;;;;;;7.00;6.30;;;;;;;4.45;70.14;100528.38;5018186;28;20426;-79
2022/04/04 04:25:14;;;;;;;6.20;5.60;;;;;;;4.92;68.27;100515.13;5018700;28;20498;-80
2022/04/04 04:27:40;;;;;;;7.00;5.97;;;;;;;4.46;69.38;100503.44;5021526;28;20450;-78
2022/04/04 04:30:06;;;;;;;7.30;6.20;;;;;;;4.63;69.35;100502.25;5021836;28;20491;-78
2022/04/04 04:32:31;;;;;;;6.97;6.27;;;;;;;4.79;68.08;100490.66;5021756;28;20195;-78
2022/04/04 04:34:56;;;;;;;6.33;5.50;;;;;;;5.12;66.93;100482.09;5003968;28;20171;-78
2022/04/04 04:37:22;;;;;;;7.00;6.03;;;;;;;4.75;67.27;100483.66;5020411;28;20167;-77
2022/04/04 04:39:48;;;;;;;7.30;6.10;;;;;;;5.05;67.92;100469.84;5020999;28;20499;-78
2022/04/04 04:42:13;;;;;;;7.03;5.83;;;;;;;4.71;67.71;100467.19;5020733;28;20174;-79
2022/04/04 04:44:38;;;;;;;6.63;5.93;;;;;;;4.91;66.77;100459.13;5021905;28;20433;-79
2022/04/04 04:47:05;;;;;;;6.60;5.90;;;;;;;5.14;66.10;100452.03;5022094;28;20167;-79
2022/04/04 04:49:31;;;;;;;9.33;6.30;;;;;;;4.90;67.04;100441.91;5022562;28;20167;-79
2022/04/04 04:51:57;;;;;;;8.17;6.77;;;;;;;5.20;65.87;100433.22;5022147;28;20508;-78
2022/04/04 04:54:22;;;;;;;8.93;6.10;;;;;;;4.97;66.38;100427.44;5021632;28;20553;-77
2022/04/04 04:56:47;;;;;;;7.30;6.10;;;;;;;4.87;66.58;100434.03;5021066;28;20178;-78
2022/04/04 04:59:13;;;;;;;7.67;6.87;;;;;;;5.25;65.40;100416.13;5021575;28;20232;-81
2022/04/04 05:01:39;;;;;;;7.80;6.67;;;;;;;5.10;66.07;100411.44;5022237;28;20284;-80
2022/04/04 05:04:05;;;;;;;7.70;6.90;;;;;;;5.13;65.69;100403.75;5021199;28;20174;-80
2022/04/04 05:06:31;;;;;;;7.37;6.70;;;;;;;5.18;65.41;100398.69;5022022;28;20422;-79
2022/04/04 05:08:59;;;;;;;11.47;7.63;;;;;;;4.96;65.93;100392.97;5021490;28;20175;-79
2022/04/04 05:11:25;;;;;;;9.33;7.17;;;;;;;5.47;65.80;100393.41;5021336;28;20687;-79
2022/04/04 05:13:50;;;;;;;8.00;7.20;;;;;;;4.99;66.01;100392.16;5026721;28;20445;-79
2022/04/04 05:16:15;;;;;;;9.23;7.60;;;;;;;5.08;65.26;100381.22;5040433;28;20174;-79
2022/04/04 05:18:44;;;;;;;9.53;7.17;;;;;;;4.89;65.85;100378.13;5040678;28;20598;-78
2022/04/04 05:21:10;;;;;;;8.63;7.73;;;;;;;4.66;66.70;100372.34;5040951;28;20175;-79
2022/04/04 05:23:36;;;;;;;8.83;7.93;;;;;;;4.62;67.17;100367.94;5040605;28;20483;-79
2022/04/04 05:26:01;;;;;;;10.87;9.03;;;;;;;4.88;67.09;100368.63;5040835;28;20520;-78
2022/04/04 05:28:26;;;;;;;9.47;8.50;;;;;;;4.85;67.32;100368.56;5041158;28;20166;-79
2022/04/04 05:30:52;;;;;;;9.53;8.53;;;;;;;5.03;67.05;100348.38;5040196;28;20174;-79
2022/04/04 05:33:17;;;;;;;9.07;8.10;;;;;;;5.00;67.68;100350.00;5040154;28;20206;-79
2022/04/04 05:35:42;;;;;;;10.30;8.97;;;;;;;5.01;67.04;100344.88;5040976;28;20186;-79
2022/04/04 05:38:08;;;;;;;16.83;8.90;;;;;;;4.97;66.51;100337.88;5039883;28;20170;-79
2022/04/04 05:40:34;;;;;;;9.97;8.97;;;;;;;4.90;67.06;100341.16;5040697;28;20269;-80
2022/04/04 05:43:00;;;;;;;15.47;9.70;;;;;;;4.84;67.49;100348.72;5040849;28;20213;-81
2022/04/04 05:45:26;;;;;;;10.80;9.70;;;;;;;5.02;67.63;100333.72;5040433;28;20713;-79
2022/04/04 05:47:52;;;;;;;14.13;10.20;;;;;;;5.11;67.21;100324.44;5040908;28;20499;-79
2022/04/04 05:50:18;;;;;;;14.57;10.00;;;;;;;5.06;67.27;100327.78;5041080;28;20194;-82
2022/04/04 05:52:44;;;;;;;10.40;9.40;;;;;;;5.04;67.23;100313.09;5040598;28;20182;-80
2022/04/04 05:55:10;;;;;;;11.80;9.80;;;;;;;5.23;66.75;100320.44;5040909;28;20655;-78
2022/04/04 05:57:38;;;;;;;13.10;10.27;;;;;;;5.21;66.90;100305.75;5041256;28;20423;-79
2022/04/04 06:00:10;;;;;;;12.97;10.80;;;;;;;5.61;66.64;100301.50;5039558;28;20413;-78
2022/04/04 06:02:37;;;;;;;13.70;9.80;;;;;;;5.25;67.02;100307.59;5039784;28;20551;-79
2022/04/04 06:05:03;;;;;;;16.03;12.00;;;;;;;4.96;67.91;100299.97;5039722;28;20510;-79
2022/04/04 06:07:28;;;;;;;12.50;10.93;;;;;;;5.01;68.83;100295.78;5039148;28;20439;-78
2022/04/04 06:09:53;;;;;;;12.00;10.80;;;;;;;5.50;67.94;100284.88;5040066;28;20417;-78
2022/04/04 06:12:19;;;;;;;14.77;12.17;;;;;;;5.14;68.59;100293.50;5039168;28;20261;-77
2022/04/04 06:14:44;;;;;;;13.50;12.03;;;;;;;5.12;69.46;100284.88;5039434;28;20578;-78
2022/04/04 06:17:09;;;;;;;14.37;12.67;;;;;;;4.98;70.35;100285.41;5040067;28;20170;-78
2022/04/04 06:19:35;;;;;;;16.73;12.60;;;;;;;5.01;70.29;100282.88;5039376;28;20256;-79
2022/04/04 06:22:01;;;;;;;14.83;12.80;;;;;;;5.55;70.22;100267.78;5038662;28;20174;-79
2022/04/04 06:24:27;;;;;;;17.40;13.97;;;;;;;4.91;71.14;100264.53;5040198;28;20658;-78
2022/04/04 06:26:52;;;;;;;18.70;13.53;;;;;;;5.22;71.25;100263.56;5028842;28;20444;-78
2022/04/04 06:29:18;;;;;;;15.17;13.53;;;;;;;5.29;70.57;100247.38;5018861;28;20444;-78
2022/04/04 06:31:44;;;;;;;15.53;13.90;;;;;;;4.83;71.89;100265.22;5019569;28;20175;-80
2022/04/04 06:34:10;;;;;;;15.33;13.27;;;;;;;5.09;71.87;100252.06;5019286;28;20220;-79
2022/04/04 06:36:37;;;;;;;17.60;14.00;;;;;;;5.34;72.21;100230.22;5013764;28;20868;-80
2022/04/04 06:39:02;;;;;;;15.50;13.20;;;;;;;4.87;72.29;100235.16;5000339;28;20175;-79
2022/04/04 06:41:28;;;;;;;15.33;13.73;;;;;;;5.04;72.14;100230.41;4998743;28;20438;-78
2022/04/04 06:43:54;;;;;;;15.43;13.60;;;;;;;5.11;72.58;100215.94;5001177;28;20191;-80
2022/04/04 06:46:22;;;;;;;15.43;13.93;;;;;;;5.18;72.31;100226.44;5000154;28;20194;-79
2022/04/04 06:48:50;;;;;;;15.27;13.67;;;;;;;4.62;73.37;100219.06;5017400;28;20480;-81
2022/04/04 06:51:15;;;;;;;15.23;13.70;;;;;;;4.79;73.58;100214.31;5032924;28;20436;-80
2022/04/04 06:53:40;;;;;;;15.83;14.17;;;;;;;4.79;73.27;100206.59;5020178;28;20470;-78
2022/04/04 06:56:06;;;;;;;17.93;14.40;;;;;;;4.91;73.46;100198.22;5021692;28;20178;-78
2022/04/04 06:58:31;;;;;;;16.67;14.83;;;;;;;4.78;73.32;100198.81;5029967;28;20190;-77
2022/04/04 07:00:57;;;;;;;16.53;14.83;;;;;;;4.70;74.26;100189.13;5030354;28;20198;-78
2022/04/04 07:03:23;;;;;;;16.37;13.80;;;;;;;4.79;74.15;100185.91;5026894;28;20291;-78
2022/04/04 07:05:48;;;;;;;18.37;16.10;;;;;;;4.63;75.04;100187.25;5031002;28;20510;-77
2022/04/04 07:08:14;;;;;;;18.87;16.03;;;;;;;4.90;74.67;100170.69;5033292;28;20178;-79
2022/04/04 07:10:39;;;;;;;17.20;15.40;;;;;;;4.59;75.45;100164.78;5027645;28;20458;-78
2022/04/04 07:13:05;;;;;;;16.23;14.57;;;;;;;4.76;75.18;100156.56;5027769;28;20237;-78
2022/04/04 07:15:31;;;;;;;16.80;14.97;;;;;;;4.87;75.36;100155.97;5024998;28;20284;-78
2022/04/04 07:17:56;;;;;;;20.90;16.33;;;;;;;4.91;74.99;100154.31;5037333;28;20527;-79
2022/04/04 07:20:22;;;;;;;20.50;16.90;;;;;;;5.20;74.21;100136.91;5034386;28;20430;-79
2022/04/04 07:22:47;;;;;;;18.10;14.77;;;;;;;4.31;75.19;100133.09;5033028;28;20182;-77
2022/04/04 07:25:14;;;;;;;18.77;15.60;;;;;;;4.54;75.83;100120.75;5031910;28;20189;-79
2022/04/04 07:27:41;;;;;;;19.20;17.20;;;;;;;5.09;75.75;100117.72;5021482;28;20285;-78
2022/04/04 07:30:07;;;;;;;18.53;16.20;;;;;;;4.77;75.77;100109.25;5033199;28;20474;-77
2022/04/04 07:32:36;;;;;;;18.43;16.50;;;;;;;5.11;75.32;100107.41;5018229;28;20441;-78
2022/04/04 07:35:03;;;;;;;18.53;15.53;;;;;;;4.48;76.19;100094.81;5002618;28;20496;-78
2022/04/04 07:37:28;;;;;;;17.50;15.70;;;;;;;4.61;76.56;100098.53;5037490;28;20440;-80
2022/04/04 07:39:54;;;;;;;17.80;15.87;;;;;;;5.04;76.14;100086.59;5021747;28;20416;-79
2022/04/04 07:42:19;;;;;;;16.23;14.50;;;;;;;4.97;75.58;100076.97;5036676;28;20221;-80
2022/04/04 07:44:44;;;;;;;16.73;14.93;;;;;;;5.07;75.17;100070.28;5037031;28;20213;-80
2022/04/04 07:47:10;;;;;;;19.20;14.63;;;;;;;5.02;75.30;100066.72;5025095;28;20214;-80
2022/04/04 07:49:35;;;;;;;17.83;16.00;;;;;;;4.74;76.21;100049.81;5018482;28;20187;-78
2022/04/04 07:52:00;;;;;;;16.30;14.70;;;;;;;4.69;76.35;100042.78;5031741;28;20210;-80
2022/04/04 07:54:26;;;;;;;19.23;17.33;;;;;;;4.86;76.29;100050.06;5022826;28;20284;-79
2022/04/04 07:56:53;;;;;;;18.17;16.20;;;;;;;4.74;76.47;100031.72;5017784;28;20194;-79
2022/04/04 07:59:19;;;;;;;17.73;15.83;;;;;;;4.66;76.55;100022.09;5018827;28;20175;-80
2022/04/04 08:01:44;;;;;;;17.33;15.50;;;;;;;5.07;75.74;100008.28;5035811;28;20541;-79
2022/04/04 08:04:10;;;;;;;19.13;17.13;;;;;;;4.81;76.09;100018.09;5030829;28;20178;-80
2022/04/04 08:06:35;;;;;;;20.47;18.30;;;;;;;5.20;76.05;99999.94;5027063;28;20217;-81
2022/04/04 08:09:01;;;;;;;19.20;17.30;;;;;;;5.00;75.57;100001.28;5032767;28;20194;-78
2022/04/04 08:11:26;;;;;;;20.70;18.70;;;;;;;4.97;75.33;99984.00;5040765;28;20530;-78
2022/04/04 08:13:52;;;;;;;18.73;16.57;;;;;;;4.68;76.42;99999.75;5041397;28;20291;-79
2022/04/04 08:16:17;;;;;;;19.83;17.70;;;;;;;4.04;78.25;99971.63;5035311;28;20437;-78
2022/04/04 08:18:42;;;;;;;20.03;18.03;;;;;;;4.53;79.02;99973.59;5032244;28;20531;-81
2022/04/04 08:21:08;;;;;;;17.53;15.83;;;;;;;3.84;79.47;99963.47;5041915;28;20214;-76
2022/04/04 08:23:33;;;;;;;17.10;14.83;;;;;;;3.96;79.53;99959.41;5024155;28;20499;-77
2022/04/04 08:25:59;;;;;;;20.23;18.23;;;;;;;4.50;79.53;99937.41;5019790;28;20179;-76
2022/04/04 08:28:25;;;;;;;20.90;18.90;;;;;;;4.27;79.40;99945.50;5009995;28;20186;-75
2022/04/04 08:30:51;;;;;;;20.33;18.23;;;;;;;4.80;77.70;99931.13;5006400;28;20434;-76
2022/04/04 08:33:17;;;;;;;20.30;18.17;;;;;;;4.46;77.53;99939.03;5020962;28;20929;-76
2022/04/04 08:35:42;;;;;;;20.93;18.83;;;;;;;4.57;78.15;99902.28;5020925;28;20205;-75
2022/04/04 08:38:08;;;;;;;18.50;16.70;;;;;;;4.47;77.73;99904.66;5020614;28;20802;-76
2022/04/04 08:40:33;;;;;;;20.37;18.20;;;;;;;4.71;78.01;99895.69;5020695;28;20191;-75
2022/04/04 08:43:00;;;;;;;19.00;17.20;;;;;;;4.03;78.89;99883.91;5013287;28;20186;-76
2022/04/04 08:45:25;;;;;;;20.60;18.07;;;;;;;4.47;78.75;99889.16;5017406;28;20194;-75
2022/04/04 08:47:51;;;;;;;19.23;17.30;;;;;;;4.90;77.99;99871.09;5021546;28;20421;-76
2022/04/04 08:50:18;;;;;;;14.07;12.67;;;;;;;8.27;75.75;99857.75;5021509;28;20175;-66
2022/04/04 08:52:44;;;;;;;15.50;13.97;;;;;;;6.66;69.04;99853.00;5019480;28;20293;-78
2022/04/04 08:55:15;;;;;;;17.00;15.40;;;;;;;5.09;73.26;99855.88;5020637;28;20877;-75
2022/04/04 08:57:41;;;;;;;15.97;14.53;;;;;;;4.67;75.94;99843.09;5021231;28;20191;-75
2022/04/04 09:00:10;;;;;;;17.77;16.00;;;;;;;4.66;77.35;99840.50;5020719;28;20812;-76
2022/04/04 09:02:35;;;;;;;18.33;16.43;;;;;;;4.34;78.45;99836.47;5020038;28;20515;-75
2022/04/04 09:05:05;;;;;;;16.23;14.53;;;;;;;4.28;77.92;99807.94;5021189;28;20402;-74
2022/04/04 09:07:30;;;;;;;15.27;13.70;;;;;;;4.15;78.58;99811.97;5020759;28;20178;-76
2022/04/04 09:09:56;;;;;;;19.03;15.77;;;;;;;4.38;79.06;99799.53;5020624;28;20418;-75
2022/04/04 09:12:23;;;;;;;17.50;15.60;;;;;;;4.47;77.87;99787.66;5020128;28;20345;-75
2022/04/04 09:14:53;;;;;;;16.40;14.70;;;;;;;4.53;78.13;99796.38;5003291;28;20203;-75
2022/04/04 09:17:21;;;;;;;15.53;13.73;;;;;;;4.71;77.72;99772.63;5020071;28;20432;-74
2022/04/04 09:19:46;;;;;;;17.53;14.90;;;;;;;4.47;78.11;99797.97;5023032;28;20410;-75
2022/04/04 09:22:18;;;;;;;16.23;14.63;;;;;;;4.75;77.21;99775.25;5028749;28;20440;-75
2022/04/04 09:24:57;;;;;;;16.00;14.50;;;;;;;4.59;77.75;99751.75;5033405;28;20540;-77
2022/04/04 09:27:30;;;;;;;14.63;13.10;;;;;;;4.71;77.30;99771.75;5055957;28;20420;-77
2022/04/04 09:29:56;;;;;;;13.97;12.53;;;;;;;5.02;76.35;99754.16;5020805;28;20417;-78
2022/04/04 09:32:41;;;;;;;16.80;14.53;;;;;;;4.83;76.80;99747.84;5020165;28;20508;-73
2022/04/04 09:35:09;;;;;;;14.73;13.33;;;;;;;4.74;77.40;99752.88;5020455;28;20823;-74
2022/04/04 09:37:35;;;;;;;15.03;13.43;;;;;;;4.88;77.54;99738.47;5033455;28;20690;-73
2022/04/04 09:40:10;;;;;;;15.97;12.80;;;;;;;4.49;78.61;99747.25;5038906;28;20416;-73
2022/04/04 09:42:36;;;;;;;15.77;14.17;;;;;;;4.98;77.41;99726.56;5039188;28;20431;-77
2022/04/04 09:45:05;;;;;;;16.20;14.60;;;;;;;4.83;78.04;99712.56;5040071;28;20413;-74
2022/04/04 09:47:49;;;;;;;16.10;11.60;;;;;;;4.14;78.96;99722.53;5039983;28;20406;-75
2022/04/04 09:50:48;;;;;;;18.97;14.83;;;;;;;4.98;79.54;99699.03;5039402;28;20416;-76
2022/04/04 09:53:19;;;;;;;17.57;13.30;;;;;;;4.60;79.24;99707.03;5007167;28;20503;-80
2022/04/04 09:55:52;;;;;;;18.00;14.80;;;;;;;4.55;79.88;99700.91;5042350;28;20413;-81
2022/04/04 09:58:22;;;;;;;14.60;13.10;;;;;;;4.79;79.75;99691.81;5042223;28;20809;-79
2022/04/04 10:00:50;;;;;;;17.50;15.60;;;;;;;4.80;80.03;99685.81;5039793;28;20687;-77
2022/04/04 10:03:17;;;;;;;15.80;11.47;;;;;;;4.07;80.32;99674.25;5000246;28;20466;-80
2022/04/04 10:05:44;;;;;;;13.53;12.30;;;;;;;4.79;79.91;99660.84;5000653;28;20450;-78
2022/04/04 10:08:13;;;;;;;15.60;14.00;;;;;;;4.88;79.79;99655.81;5000065;28;20788;-78
2022/04/04 10:10:38;;;;;;;15.37;12.63;;;;;;;4.66;79.43;99662.38;4999914;28;20433;-79
2022/04/04 10:13:07;;;;;;;15.67;14.03;;;;;;;4.99;79.11;99655.97;5015791;28;20462;-77
2022/04/04 10:15:35;;;;;;;15.70;14.17;;;;;;;4.37;79.70;99655.00;5015754;28;20182;-78
2022/04/04 10:18:01;;;;;;;14.27;12.77;;;;;;;4.57;80.15;99637.25;4982876;28;20447;-78
2022/04/04 10:20:26;;;;;;;14.70;13.20;;;;;;;4.71;80.19;99634.91;5000272;28;20461;-77
2022/04/04 10:22:54;;;;;;;15.30;13.80;;;;;;;4.71;80.42;99643.53;4999633;28;20180;-77
2022/04/04 10:25:24;;;;;;;14.23;12.73;;;;;;;4.53;81.16;99628.63;4998907;28;20545;-78
2022/04/04 10:27:49;;;;;;;15.07;13.47;;;;;;;4.88;81.30;99606.75;5011583;28;20819;-77
2022/04/04 10:30:16;;;;;;;15.30;13.77;;;;;;;4.61;80.90;99617.53;5038307;28;20559;-77
2022/04/04 10:32:52;;;;;;;14.40;12.90;;;;;;;5.10;80.65;99599.28;5039201;28;20202;-78
2022/04/04 10:35:24;;;;;;;14.80;13.10;;;;;;;4.76;80.49;99594.53;5038356;28;20416;-78
2022/04/04 10:37:50;;;;;;;16.07;14.47;;;;;;;4.78;80.58;99597.16;5039088;28;20424;-78
2022/04/04 10:40:24;;;;;;;14.80;13.23;;;;;;;5.03;80.29;99598.34;5039514;28;20779;-78
2022/04/04 10:43:12;;;;;;;15.17;13.67;;;;;;;4.67;80.95;99581.50;5038019;28;20176;-77
2022/04/04 10:45:51;;;;;;;14.07;12.63;;;;;;;4.89;80.90;99569.75;5039241;28;20430;-77
2022/04/04 10:48:18;;;;;;;13.67;12.17;;;;;;;4.66;80.79;99570.28;5038644;28;20413;-77
2022/04/04 10:50:44;;;;;;;15.70;14.30;;;;;;;5.24;80.50;99574.53;5038479;28;20424;-76
2022/04/04 10:53:10;;;;;;;15.47;14.00;;;;;;;5.18;79.50;99557.22;5038513;28;20472;-79
2022/04/04 10:55:38;;;;;;;14.50;13.17;;;;;;;5.02;80.47;99561.31;5037930;28;20431;-76
2022/04/04 10:58:14;;;;;;;16.10;14.50;;;;;;;5.22;80.19;99558.13;5039192;28;20405;-79
2022/04/04 11:01:03;;;;;;;14.60;13.20;;;;;;;4.92;80.26;99548.28;5039065;28;20478;-79
2022/04/04 11:03:35;;;;;;;14.97;13.33;;;;;;;5.13;80.52;99540.81;4999305;28;20918;-77
2022/04/04 11:09:18;;;;;;;14.40;12.90;;;;;;;5.09;80.46;99549.38;4999491;28;20886;-77
2022/04/04 11:11:58;;;;;;;16.07;14.50;;;;;;;5.34;79.69;99542.75;4999012;28;20541;-77
2022/04/04 11:14:26;;;;;;;15.10;13.80;;;;;;;5.26;80.54;99528.03;4998800;28;20906;-77
2022/04/04 11:20:10;;;;;;;14.50;13.10;;;;;;;5.25;80.45;99527.16;4990250;28;20438;-76
2022/04/04 11:22:41;;;;;;;15.10;13.70;;;;;;;4.92;81.30;99515.56;4999047;28;20423;-79
2022/04/04 11:25:08;;;;;;;15.57;14.07;;;;;;;5.16;80.53;99499.50;4998949;28;20835;-77
2022/04/04 11:27:35;;;;;;;14.10;12.80;;;;;;;5.04;81.49;99497.63;5021502;28;20424;-78
2022/04/04 11:30:02;;;;;;;13.90;12.60;;;;;;;5.11;81.72;99513.22;5038558;28;20417;-75
2022/04/04 11:32:34;;;;;;;15.13;13.63;;;;;;;5.01;82.19;99491.56;5038738;28;20467;-77